createdAt,value
2023-02-15T00:02:42.691Z,42.51
2023-02-15T00:07:44.575Z,42.48
2023-02-15T00:12:46.355Z,42.58
2023-02-15T00:17:48.208Z,42.71
2023-02-15T00:22:50.004Z,42.46
2023-02-15T00:27:51.817Z,42.39
2023-02-15T00:32:53.632Z,42.52
2023-02-15T00:37:55.815Z,42.38
2023-02-15T00:42:59.851Z,42.70
2023-02-15T00:48:01.800Z,42.64
2023-02-15T00:53:03.817Z,42.70
2023-02-15T00:58:06.098Z,42.77
2023-02-15T01:03:08.362Z,42.40
2023-02-15T01:08:10.285Z,42.64
2023-02-15T01:13:12.133Z,42.48
2023-02-15T01:18:14.173Z,42.70
2023-02-15T01:23:16.658Z,42.72
2023-02-15T01:28:18.697Z,42.73
2023-02-15T01:33:20.482Z,42.63
2023-02-15T01:38:22.487Z,42.46
2023-02-15T01:43:41.563Z,42.71
2023-02-15T01:48:49.097Z,42.52
2023-02-15T01:54:01.660Z,42.76
2023-02-15T01:59:09.535Z,42.83
2023-02-15T02:04:29.374Z,42.57
2023-02-15T02:09:31.468Z,42.62
2023-02-15T02:14:33.588Z,42.63
2023-02-15T02:19:47.453Z,42.63
2023-02-15T02:25:27.259Z,42.53
2023-02-15T02:30:29.418Z,42.54
2023-02-15T02:35:38.152Z,42.73
2023-02-15T02:41:17.358Z,42.86
2023-02-15T02:46:31.481Z,42.95
2023-02-15T02:51:33.590Z,42.63
2023-02-15T02:56:40.665Z,42.92
2023-02-15T03:01:53.195Z,42.57
2023-02-15T03:07:04.734Z,42.89
2023-02-15T03:12:06.923Z,42.79
2023-02-15T03:17:10.267Z,42.52
2023-02-15T03:22:44.268Z,42.64
2023-02-15T03:27:51.148Z,42.58
2023-02-15T03:32:54.412Z,42.73
2023-02-15T03:38:01.859Z,42.59
2023-02-15T03:43:12.265Z,42.99
2023-02-15T03:48:14.480Z,42.56
2023-02-15T03:53:22.051Z,42.61
2023-02-15T03:58:42.798Z,42.52
2023-02-15T04:03:50.460Z,42.64
2023-02-15T04:09:10.971Z,42.71
2023-02-15T04:14:31.488Z,42.62
2023-02-15T04:19:52.127Z,42.61
2023-02-15T04:25:15.182Z,42.83
2023-02-15T04:30:19.970Z,42.45
2023-02-15T04:35:21.823Z,42.57
2023-02-15T04:40:23.862Z,42.60
2023-02-15T04:45:25.837Z,42.85
2023-02-15T04:50:27.810Z,42.64
2023-02-15T04:55:29.719Z,42.78
2023-02-15T05:00:31.518Z,42.72
2023-02-15T05:05:33.585Z,42.52
2023-02-15T05:10:35.561Z,42.46
2023-02-15T05:15:37.426Z,42.70
2023-02-15T05:20:39.612Z,42.41
2023-02-15T05:26:00.520Z,42.60
2023-02-15T05:31:12.549Z,42.23
2023-02-15T05:36:14.910Z,42.34
2023-02-15T05:41:17.078Z,42.39
2023-02-15T05:46:19.093Z,42.29
2023-02-15T05:51:20.981Z,42.55
2023-02-15T05:56:23.064Z,42.49
2023-02-15T06:01:24.961Z,42.27
2023-02-15T06:06:27.024Z,42.43
2023-02-15T06:11:28.834Z,42.40
2023-02-15T06:16:30.868Z,42.56
2023-02-15T06:21:32.930Z,42.42
2023-02-15T06:26:34.867Z,42.52
2023-02-15T06:31:36.957Z,42.46
2023-02-15T06:36:38.980Z,42.21
2023-02-15T06:41:40.770Z,42.27
2023-02-15T06:46:42.825Z,42.15
2023-02-15T06:51:44.847Z,42.29
2023-02-15T06:56:47.169Z,42.46
2023-02-15T07:01:50.573Z,42.42
2023-02-15T07:06:54.025Z,42.20
2023-02-15T07:12:14.798Z,42.05
2023-02-15T07:17:34.974Z,42.41
2023-02-15T07:22:38.685Z,42.14
2023-02-15T07:27:41.350Z,42.24
2023-02-15T07:33:05.112Z,42.40
2023-02-15T07:38:07.452Z,42.06
2023-02-15T07:43:09.835Z,42.41
2023-02-15T07:48:11.737Z,42.18
2023-02-15T07:53:13.658Z,42.31
2023-02-15T07:58:15.567Z,41.80
2023-02-15T08:03:17.491Z,42.27
2023-02-15T08:08:31.219Z,41.47
2023-02-15T08:13:33.185Z,40.35
2023-02-15T08:18:35.994Z,39.72
2023-02-15T08:23:37.795Z,40.03
2023-02-15T08:28:40.195Z,39.77
2023-02-15T08:33:43.621Z,39.51
2023-02-15T08:38:45.603Z,39.68
2023-02-15T08:43:50.588Z,39.58
2023-02-15T08:48:53.022Z,39.61
2023-02-15T08:53:59.134Z,39.56
2023-02-15T08:59:01.627Z,39.51
2023-02-15T09:04:06.882Z,39.61
2023-02-15T09:09:09.221Z,39.23
2023-02-15T09:14:17.331Z,39.13
2023-02-15T09:19:20.850Z,39.11
2023-02-15T09:24:22.986Z,38.72
2023-02-15T09:29:25.524Z,39.52
2023-02-15T09:34:27.417Z,40.28
2023-02-15T09:39:29.357Z,40.31
2023-02-15T09:44:59.534Z,40.60
2023-02-15T09:50:22.871Z,40.23
2023-02-15T09:55:30.597Z,41.50
2023-02-15T10:00:56.879Z,41.13
2023-02-15T10:06:43.022Z,41.03
2023-02-15T10:12:03.100Z,40.65
2023-02-15T10:17:27.807Z,40.34
2023-02-15T10:23:03.287Z,40.65
2023-02-15T10:28:16.235Z,40.40
2023-02-15T10:33:18.006Z,40.45
2023-02-15T10:38:38.350Z,40.44
2023-02-15T10:44:15.067Z,40.50
2023-02-15T10:49:34.237Z,40.48
2023-02-15T10:54:45.453Z,40.47
2023-02-15T11:00:03.530Z,40.52
2023-02-15T11:05:37.880Z,40.86
2023-02-15T11:11:03.349Z,40.90
2023-02-15T11:16:20.186Z,40.97
2023-02-15T11:21:27.292Z,40.79
2023-02-15T11:26:45.958Z,40.65
2023-02-15T11:31:54.678Z,40.77
2023-02-15T11:37:02.777Z,40.96
2023-02-15T11:42:21.670Z,40.58
2023-02-15T11:47:24.041Z,40.91
2023-02-15T11:52:25.800Z,41.12
2023-02-15T11:57:36.711Z,41.19
2023-02-15T12:02:42.115Z,41.02
2023-02-15T12:08:02.066Z,41.28
2023-02-15T12:13:12.370Z,41.21
2023-02-15T12:18:20.466Z,41.11
2023-02-15T12:23:23.249Z,41.19
2023-02-15T12:28:34.908Z,41.15
2023-02-15T12:33:44.572Z,41.11
2023-02-15T12:39:15.044Z,40.90
2023-02-15T12:44:24.755Z,41.04
2023-02-15T12:49:28.914Z,41.07
2023-02-15T12:54:42.622Z,41.27
2023-02-15T12:59:55.912Z,41.18
2023-02-15T13:05:04.936Z,41.34
2023-02-15T13:10:22.788Z,41.30
2023-02-15T13:15:41.827Z,41.02
2023-02-15T13:20:46.359Z,41.13
2023-02-15T13:25:51.646Z,40.16
2023-02-15T13:30:54.485Z,39.62
2023-02-15T13:36:15.915Z,39.51
2023-02-15T13:41:25.874Z,39.26
2023-02-15T13:46:49.842Z,39.18
2023-02-15T13:52:14.172Z,39.32
2023-02-15T13:57:34.592Z,39.10
2023-02-15T14:02:47.440Z,39.05
2023-02-15T14:08:19.849Z,39.03
2023-02-15T14:13:27.916Z,39.19
2023-02-15T14:18:37.120Z,39.23
2023-02-15T14:23:54.845Z,38.87
2023-02-15T14:29:06.844Z,39.15
2023-02-15T14:34:22.188Z,39.07
2023-02-15T14:40:27.870Z,39.44
2023-02-15T14:45:44.211Z,40.12
2023-02-15T14:50:48.095Z,40.90
2023-02-15T14:56:06.336Z,40.83
2023-02-15T15:01:12.352Z,40.97
2023-02-15T15:06:30.619Z,40.79
2023-02-15T15:11:44.120Z,40.85
2023-02-15T15:16:51.932Z,41.33
2023-02-15T15:21:55.047Z,42.19
2023-02-15T15:27:34.459Z,42.96
2023-02-15T15:32:36.824Z,42.34
2023-02-15T15:38:03.545Z,42.55
2023-02-15T15:43:37.885Z,42.81
2023-02-15T15:48:42.130Z,42.72
2023-02-15T15:53:49.724Z,43.20
2023-02-15T15:59:18.481Z,42.83
2023-02-15T16:04:31.083Z,42.12
2023-02-15T16:09:33.368Z,41.58
2023-02-15T16:14:40.641Z,41.59
2023-02-15T16:19:44.076Z,42.63
2023-02-15T16:25:24.391Z,43.41
2023-02-15T16:30:34.709Z,44.27
2023-02-15T16:35:39.274Z,44.57
2023-02-15T16:40:53.621Z,43.94
2023-02-15T16:46:05.051Z,43.82
2023-02-15T16:51:07.195Z,43.30
2023-02-15T16:56:10.260Z,43.63
2023-02-15T17:01:16.858Z,43.57
2023-02-15T17:06:27.928Z,43.52
2023-02-15T17:11:56.582Z,43.60
2023-02-15T17:17:07.519Z,44.02
2023-02-15T17:22:20.913Z,44.22
2023-02-15T17:27:26.299Z,46.99
2023-02-15T17:32:31.423Z,44.01
2023-02-15T17:37:39.386Z,44.31
2023-02-15T17:42:41.347Z,44.46
2023-02-15T17:47:43.789Z,44.57
2023-02-15T17:52:45.794Z,44.39
2023-02-15T17:57:47.554Z,45.25
2023-02-15T18:03:07.993Z,44.03
2023-02-15T18:08:45.667Z,43.84
2023-02-15T18:13:47.648Z,43.89
2023-02-15T18:18:50.118Z,43.73
2023-02-15T18:23:51.996Z,43.07
2023-02-15T18:28:54.094Z,42.98
2023-02-15T18:33:59.987Z,42.90
2023-02-15T18:39:08.501Z,42.89
2023-02-15T18:44:12.599Z,42.76
2023-02-15T18:49:14.421Z,43.24
2023-02-15T18:54:22.614Z,43.22
2023-02-15T18:59:26.600Z,47.03
2023-02-15T19:04:28.699Z,46.37
2023-02-15T19:09:31.323Z,46.20
2023-02-15T19:14:33.745Z,45.41
2023-02-15T19:19:35.749Z,45.00
2023-02-15T19:24:40.806Z,45.16
2023-02-15T19:29:42.630Z,44.75
2023-02-15T19:34:44.518Z,44.65
2023-02-15T19:39:46.691Z,46.13
2023-02-15T19:44:48.959Z,45.17
2023-02-15T19:49:51.099Z,47.67
2023-02-15T19:54:55.253Z,46.44
2023-02-15T19:59:57.168Z,46.31
2023-02-15T20:05:00.459Z,45.27
2023-02-15T20:10:02.751Z,46.07
2023-02-15T20:15:18.458Z,45.18
2023-02-15T20:20:21.957Z,44.65
2023-02-15T20:25:28.811Z,44.80
2023-02-15T20:30:32.691Z,44.61
2023-02-15T20:35:34.774Z,44.80
2023-02-15T20:40:37.952Z,44.60
2023-02-15T20:45:39.842Z,44.69
2023-02-15T20:50:42.016Z,44.45
2023-02-15T20:55:43.868Z,44.44
2023-02-15T21:00:45.728Z,44.38
2023-02-15T21:05:50.090Z,44.33
2023-02-15T21:10:53.215Z,44.76
2023-02-15T21:15:55.912Z,45.05
2023-02-15T21:21:04.496Z,44.88
2023-02-15T21:26:13.946Z,44.70
2023-02-15T21:31:19.415Z,55.50
2023-02-15T21:36:24.668Z,54.64
2023-02-15T21:41:46.764Z,53.75
2023-02-15T21:47:07.637Z,53.92
2023-02-15T21:52:12.952Z,53.14
2023-02-15T21:57:17.220Z,51.00
2023-02-15T22:02:26.767Z,49.61
2023-02-15T22:07:28.682Z,50.15
2023-02-15T22:12:30.485Z,49.48
2023-02-15T22:17:34.623Z,49.35
2023-02-15T22:22:36.292Z,48.72
2023-02-15T22:27:40.627Z,49.25
2023-02-15T22:32:42.471Z,47.98
2023-02-15T22:37:44.355Z,47.45
2023-02-15T22:42:49.278Z,46.97
2023-02-15T22:47:57.581Z,46.32
2023-02-15T22:53:01.448Z,46.62
2023-02-15T22:58:04.254Z,46.25
2023-02-15T23:03:17.158Z,46.14
2023-02-15T23:08:19.264Z,45.80
2023-02-15T23:13:26.308Z,45.74
2023-02-15T23:18:40.248Z,45.70
2023-02-15T23:23:45.073Z,45.68
2023-02-15T23:28:47.580Z,45.55
2023-02-15T23:33:50.193Z,45.40
2023-02-15T23:38:52.968Z,45.86
2023-02-15T23:44:02.408Z,45.99
2023-02-15T23:49:15.221Z,45.64
2023-02-15T23:54:18.842Z,45.81
2023-02-15T23:59:32.099Z,45.70
